• Join FlightAware (Why Join?)
  • Login
  • US Flag 
09:45PM EDT


 

Airport Tracker/Info


-or-


 

Live Flight TrackerFlight Track Log ✈ N8532W ✈ 04-Jul-2014 ✈ KTPL - M77

Flight Track Log - Related Links

Times and Time Zones

All times are in EDT time to prevent confusion due to time zone crossing. See the N8532W flight status page for this flight to view local times or setup timezone preferences in your user account.

Time Position Orientation Groundspeed Altitude Reporting Facility
EDT Latitude Longitude Course Direction KTS MPH feet Rate Location/Type
11:43AM 31.2158 -97.3425 41° Northeast 98 113 2,900  Level Fort Worth Center
11:44AM 31.2361 -97.3194 44° Northeast 111 128 3,400 420 Climbing Fort Worth Center
11:45AM 31.2400 -97.3150 44° Northeast 100 115 3,500 420 Climbing Fort Worth Center
11:46AM 31.2647 -97.2947 35° Northeast 102 117 4,000 480 Climbing Fort Worth Center
11:47AM 31.2992 -97.2756 25° Northeast 110 127 4,600 540 Climbing Fort Worth Center
11:48AM 31.3158 -97.2447 58° Northeast 110 127 5,200 540 Climbing Fort Worth Center
11:49AM 31.2932 -97.2234 41° Northeast  Level FlightAware Approximate
11:49AM 31.3314 -97.2214 52° Northeast 104 120 5,700  Level Fort Worth Center
11:50AM 31.3542 -97.1944 45° Northeast 104 120 6,200 420 Climbing Fort Worth Center
11:51AM 31.3756 -97.1714 43° Northeast 103 119 6,700 420 Climbing Fort Worth Center
11:52AM 31.3967 -97.1475 44° Northeast 103 119 7,100 420 Climbing Fort Worth Center
11:52AM 31.4064 -97.1347 48° Northeast 108 124 7,300 360 Climbing Fort Worth Center
11:53AM 31.4183 -97.1233 39° Northeast 104 120 7,500 180 Climbing Fort Worth Center
11:54AM 31.4442 -97.0914 47° Northeast 108 124 7,700 60 Climbing Fort Worth Center
11:55AM 31.4669 -97.0642 46° Northeast 113 130 7,700  Level Fort Worth Center
11:56AM 31.4889 -97.0394 44° Northeast 116 133 7,700  Level Fort Worth Center
11:56AM 31.4900 -97.0381 47° Northeast 113 130 7,700  Level Fort Worth Center
11:57AM 31.5131 -97.0117 44° Northeast 113 130 7,700  Level Fort Worth Center
11:58AM 31.5353 -96.9853 45° Northeast 114 131 7,700  Level Fort Worth Center
11:59AM 31.5583 -96.9589 44° Northeast 115 132 7,700  Level Fort Worth Center
12:00PM 31.5806 -96.9328 45° Northeast 116 133 7,700  Level Fort Worth Center
12:00PM 31.5861 -96.9267 43° Northeast 115 132 7,700  Level Fort Worth Center
12:01PM 31.6083 -96.9003 45° Northeast 115 132 7,700  Level Fort Worth Center
12:02PM 31.6317 -96.8736 44° Northeast 115 132 7,700  Level Fort Worth Center
12:03PM 31.6517 -96.8508 44° Northeast 116 133 7,700  Level Fort Worth Center
12:03PM 31.6553 -96.8467 44° Northeast 116 133 7,700  Level Fort Worth Center
12:04PM 31.6767 -96.8194 47° Northeast 116 133 7,700  Level Fort Worth Center
12:05PM 31.7050 -96.7892 42° Northeast 116 133 7,700  Level Fort Worth Center
12:06PM 31.7278 -96.7614 46° Northeast 116 133 7,700  Level Fort Worth Center
12:07PM 31.7511 -96.7356 43° Northeast 116 133 7,700  Level Fort Worth Center
12:08PM 31.7747 -96.7072 46° Northeast 119 137 7,700  Level Fort Worth Center
12:10PM 31.7986 -96.6803 44° Northeast 120 138 7,700  Level Fort Worth Center
12:11PM 31.8214 -96.6536 45° Northeast 119 137 7,700  Level Fort Worth Center
12:12PM 31.8483 -96.6217 45° Northeast 118 136 7,700  Level Fort Worth Center
12:13PM 31.8706 -96.5967 44° Northeast 114 131 7,700  Level Fort Worth Center
12:14PM 31.8922 -96.5692 47° Northeast 112 129 7,700  Level Fort Worth Center
12:15PM 31.9175 -96.5408 44° Northeast 113 130 7,700  Level Fort Worth Center
12:16PM 31.9400 -96.5150 44° Northeast 114 131 7,700  Level Fort Worth Center
12:17PM 31.9619 -96.4869 47° Northeast 114 131 7,700  Level Fort Worth Center
12:18PM 31.9867 -96.4611 42° Northeast 119 137 7,700  Level Fort Worth Center
12:19PM 32.0086 -96.4336 47° Northeast 119 137 7,700  Level Fort Worth Center
12:20PM 32.0356 -96.4008 46° Northeast 118 136 7,700  Level Fort Worth Center
12:21PM 32.0578 -96.3744 45° Northeast 117 135 7,700  Level Fort Worth Center
12:22PM 32.0803 -96.3486 44° Northeast 117 135 7,700  Level Fort Worth Center
12:23PM 32.1025 -96.3219 45° Northeast 116 133 7,700  Level Fort Worth Center
12:24PM 32.1256 -96.2958 44° Northeast 116 133 7,700  Level Fort Worth Center
12:25PM 32.1475 -96.2692 46° Northeast 116 133 7,700  Level Fort Worth Center
12:26PM 32.1747 -96.2378 44° Northeast 116 133 7,700  Level Fort Worth Center
12:27PM 32.1967 -96.2108 46° Northeast 115 132 7,700  Level Fort Worth Center
12:28PM 32.2194 -96.1847 44° Northeast 115 132 7,700  Level Fort Worth Center
12:29PM 32.2439 -96.1561 45° Northeast 115 132 7,700  Level Fort Worth Center
12:30PM 32.2653 -96.1306 45° Northeast 113 130 7,700  Level Fort Worth Center
12:31PM 32.2900 -96.1022 44° Northeast 113 130 7,700  Level Fort Worth Center
12:32PM 32.3114 -96.0753 47° Northeast 113 130 7,700  Level Fort Worth Center
12:33PM 32.3344 -96.0494 43° Northeast 113 130 7,700  Level Fort Worth Center
12:34PM 32.3583 -96.0217 44° Northeast 113 130 7,700  Level Fort Worth Center
12:35PM 32.3800 -95.9950 46° Northeast 113 130 7,700  Level Fort Worth Center
12:36PM 32.4047 -95.9664 44° Northeast 113 130 7,700  Level Fort Worth Center
12:37PM 32.4264 -95.9397 46° Northeast 113 130 7,700  Level Fort Worth Center
12:38PM 32.4433 -95.9178 48° Northeast 109 125 7,700  Level Fort Worth Center
12:39PM 32.4697 -95.8872 44° Northeast 109 125 7,700  Level Fort Worth Center
12:40PM 32.4942 -95.8597 43° Northeast 116 133 7,700  Level Fort Worth Center
12:41PM 32.5158 -95.8333 46° Northeast 115 132 7,700  Level Fort Worth Center
12:43PM 32.5397 -95.8050 45° Northeast 114 131 7,700  Level Fort Worth Center
12:44PM 32.5617 -95.7794 44° Northeast 114 131 7,700  Level Fort Worth Center
12:45PM 32.5856 -95.7508 45° Northeast 113 130 7,700  Level Fort Worth Center
12:46PM 32.6075 -95.7239 46° Northeast 113 130 7,700  Level Fort Worth Center
12:47PM 32.6294 -95.6969 46° Northeast 113 130 7,700  Level Fort Worth Center
12:48PM 32.6533 -95.6686 45° Northeast 114 131 7,700  Level Fort Worth Center
12:49PM 32.6750 -95.6425 45° Northeast 113 130 7,700  Level Fort Worth Center
12:50PM 32.6972 -95.6153 46° Northeast 113 130 7,700  Level Fort Worth Center
12:51PM 32.7169 -95.5911 46° Northeast 112 129 7,700  Level Fort Worth Center
12:52PM 32.7394 -95.5644 45° Northeast 112 129 7,700  Level Fort Worth Center
12:53PM 32.7614 -95.5381 45° Northeast 112 129 7,700  Level Fort Worth Center
12:54PM 32.7889 -95.5067 44° Northeast 115 132 7,700  Level Fort Worth Center
12:55PM 32.8117 -95.4789 46° Northeast 115 132 7,700  Level Fort Worth Center
12:56PM 32.8328 -95.4514 48° Northeast 115 132 7,700  Level Fort Worth Center
12:57PM 32.8542 -95.4247 46° Northeast 115 132 7,700  Level Fort Worth Center
12:58PM 32.8775 -95.3983 44° Northeast 115 132 7,700  Level Fort Worth Center
12:59PM 32.9000 -95.3722 44° Northeast 114 131 7,700  Level Fort Worth Center
01:00PM 32.9203 -95.3439 50° Northeast 114 131 7,700  Level Fort Worth Center
01:01PM 32.9450 -95.3172 42° Northeast 114 131 7,700  Level Fort Worth Center
01:02PM 32.9719 -95.2844 46° Northeast 115 132 7,700  Level Fort Worth Center
01:03PM 32.9914 -95.2600 47° Northeast 115 132 7,700  Level Fort Worth Center
01:04PM 33.0144 -95.2328 45° Northeast 115 132 7,700 -60 Level Fort Worth Center
01:05PM 33.0386 -95.2003 48° Northeast 114 131 7,600 -60 Descending Fort Worth Center
01:06PM 33.0617 -95.1731 45° Northeast 114 131 7,600  Level Fort Worth Center
01:07PM 33.0844 -95.1464 44° Northeast 114 131 7,600  Level Fort Worth Center
01:08PM 33.1050 -95.1189 48° Northeast 114 131 7,600  Level Fort Worth Center
01:09PM 33.1289 -95.0931 42° Northeast 114 131 7,600  Level Fort Worth Center
01:10PM 33.1508 -95.0661 46° Northeast 114 131 7,600  Level Fort Worth Center
01:11PM 33.1733 -95.0389 45° Northeast 114 131 7,600  Level Fort Worth Center
01:12PM 33.1950 -95.0128 45° Northeast 114 131 7,600  Level Fort Worth Center
01:13PM 33.2217 -94.9789 47° Northeast 114 131 7,600  Level Fort Worth Center
01:14PM 33.2442 -94.9519 45° Northeast 114 131 7,600  Level Fort Worth Center
01:15PM 33.2667 -94.9247 45° Northeast 114 131 7,600  Level Fort Worth Center
01:16PM 33.2892 -94.8967 46° Northeast 114 131 7,600  Level Fort Worth Center
01:17PM 33.3108 -94.8697 46° Northeast 114 131 7,600  Level Fort Worth Center
01:18PM 33.3336 -94.8419 46° Northeast 114 131 7,600  Level Fort Worth Center
01:19PM 33.3556 -94.8150 46° Northeast 114 131 7,600  Level Fort Worth Center
01:20PM 33.3781 -94.7875 46° Northeast 114 131 7,600  Level Fort Worth Center
01:22PM 33.4056 -94.7539 46° Northeast 114 131 7,600  Level Fort Worth Center
01:23PM 33.4281 -94.7269 45° Northeast 114 131 7,600  Level Fort Worth Center
01:24PM 33.4508 -94.6989 46° Northeast 114 131 7,600  Level Fort Worth Center
01:25PM 33.4728 -94.6708 47° Northeast 115 132 7,600  Level Fort Worth Center
01:26PM 33.4961 -94.6436 44° Northeast 115 132 7,600  Level Fort Worth Center
01:27PM 33.5181 -94.6142 48° Northeast 115 132 7,600  Level Fort Worth Center
01:28PM 33.5417 -94.5869 44° Northeast 115 132 7,600  Level Fort Worth Center
01:29PM 33.5653 -94.5583 45° Northeast 115 132 7,600  Level Fort Worth Center
01:30PM 33.5931 -94.5239 46° Northeast 116 133 7,600  Level Fort Worth Center
01:31PM 33.6156 -94.4942 48° Northeast 116 133 7,600  Level Fort Worth Center
01:32PM 33.6389 -94.4653 46° Northeast 117 135 7,600  Level Fort Worth Center
01:33PM 33.6619 -94.4369 46° Northeast 117 135 7,600  Level Fort Worth Center
01:34PM 33.6842 -94.4094 46° Northeast 117 135 7,600  Level Fort Worth Center
01:35PM 33.7078 -94.3822 44° Northeast 117 135 7,600  Level Fort Worth Center
01:36PM 33.7303 -94.3536 47° Northeast 117 135 7,600  Level Fort Worth Center
01:37PM 33.7575 -94.3200 46° Northeast 117 135 7,600  Level Fort Worth Center
01:38PM 33.7797 -94.2919 46° Northeast 117 135 7,600  Level Fort Worth Center
01:39PM 33.8017 -94.2636 47° Northeast 117 135 7,600  Level Fort Worth Center
01:40PM 33.8244 -94.2361 45° Northeast 117 135 7,600  Level Fort Worth Center
01:41PM 33.8464 -94.2078 47° Northeast 117 135 7,600  Level Fort Worth Center
01:42PM 33.8689 -94.1800 46° Northeast 116 133 7,600  Level Fort Worth Center